sensor_id;sensor_type;location;lat;lon;timestamp;P1;durP1;ratioP1;P2;durP2;ratioP2
70705;SDS011;59320;52.316;10.870;2023-07-20T00:01:51;1.58;;;1.10;;
70705;SDS011;59320;52.316;10.870;2023-07-20T00:04:20;1.50;;;1.10;;
70705;SDS011;59320;52.316;10.870;2023-07-20T00:06:47;1.20;;;1.10;;
70705;SDS011;59320;52.316;10.870;2023-07-20T00:09:14;1.45;;;1.05;;
70705;SDS011;59320;52.316;10.870;2023-07-20T00:11:47;1.77;;;1.10;;
70705;SDS011;59320;52.316;10.870;2023-07-20T00:14:16;1.95;;;1.13;;
70705;SDS011;59320;52.316;10.870;2023-07-20T00:16:45;1.40;;;1.17;;
70705;SDS011;59320;52.316;10.870;2023-07-20T00:19:14;3.08;;;1.20;;
70705;SDS011;59320;52.316;10.870;2023-07-20T00:21:43;1.92;;;1.38;;
70705;SDS011;59320;52.316;10.870;2023-07-20T00:24:10;1.73;;;0.98;;
70705;SDS011;59320;52.316;10.870;2023-07-20T00:26:37;2.67;;;1.20;;
70705;SDS011;59320;52.316;10.870;2023-07-20T00:29:04;1.88;;;1.20;;
70705;SDS011;59320;52.316;10.870;2023-07-20T00:31:31;1.02;;;0.93;;
70705;SDS011;59320;52.316;10.870;2023-07-20T00:34:01;1.35;;;1.13;;
70705;SDS011;59320;52.316;10.870;2023-07-20T00:36:28;2.05;;;1.15;;
70705;SDS011;59320;52.316;10.870;2023-07-20T00:38:57;1.58;;;1.20;;
70705;SDS011;59320;52.316;10.870;2023-07-20T00:41:24;5.03;;;1.58;;
70705;SDS011;59320;52.316;10.870;2023-07-20T00:43:55;1.38;;;1.10;;
70705;SDS011;59320;52.316;10.870;2023-07-20T00:46:22;1.45;;;1.10;;
70705;SDS011;59320;52.316;10.870;2023-07-20T00:48:50;3.72;;;1.45;;
70705;SDS011;59320;52.316;10.870;2023-07-20T00:51:19;2.03;;;1.30;;
70705;SDS011;59320;52.316;10.870;2023-07-20T00:53:46;2.88;;;1.25;;
70705;SDS011;59320;52.316;10.870;2023-07-20T00:56:15;1.58;;;1.20;;
70705;SDS011;59320;52.316;10.870;2023-07-20T00:58:43;2.13;;;1.15;;
70705;SDS011;59320;52.316;10.870;2023-07-20T01:01:10;1.38;;;1.25;;
70705;SDS011;59320;52.316;10.870;2023-07-20T01:03:39;1.50;;;1.20;;
70705;SDS011;59320;52.316;10.870;2023-07-20T01:06:09;2.45;;;1.35;;
70705;SDS011;59320;52.316;10.870;2023-07-20T01:08:45;1.27;;;0.80;;
70705;SDS011;59320;52.316;10.870;2023-07-20T01:11:35;3.38;;;1.20;;
70705;SDS011;59320;52.316;10.870;2023-07-20T01:14:05;1.90;;;1.30;;
70705;SDS011;59320;52.316;10.870;2023-07-20T01:16:32;1.58;;;1.10;;
70705;SDS011;59320;52.316;10.870;2023-07-20T01:19:00;1.08;;;0.98;;
70705;SDS011;59320;52.316;10.870;2023-07-20T01:21:29;0.98;;;0.82;;
70705;SDS011;59320;52.316;10.870;2023-07-20T01:27:16;1.35;;;1.00;;
70705;SDS011;59320;52.316;10.870;2023-07-20T01:30:25;1.00;;;0.90;;
70705;SDS011;59320;52.316;10.870;2023-07-20T01:33:03;1.80;;;1.15;;
70705;SDS011;59320;52.316;10.870;2023-07-20T01:35:31;1.08;;;0.98;;
70705;SDS011;59320;52.316;10.870;2023-07-20T01:37:59;1.55;;;1.00;;
70705;SDS011;59320;52.316;10.870;2023-07-20T01:40:26;2.10;;;1.00;;
70705;SDS011;59320;52.316;10.870;2023-07-20T01:42:54;1.10;;;1.00;;
70705;SDS011;59320;52.316;10.870;2023-07-20T01:45:21;1.15;;;1.00;;
70705;SDS011;59320;52.316;10.870;2023-07-20T01:47:48;1.73;;;1.20;;
70705;SDS011;59320;52.316;10.870;2023-07-20T01:50:17;1.35;;;1.00;;
70705;SDS011;59320;52.316;10.870;2023-07-20T01:52:44;2.15;;;1.02;;
70705;SDS011;59320;52.316;10.870;2023-07-20T01:55:11;2.35;;;1.10;;
70705;SDS011;59320;52.316;10.870;2023-07-20T01:57:38;1.00;;;0.90;;
70705;SDS011;59320;52.316;10.870;2023-07-20T02:00:06;1.10;;;1.00;;
70705;SDS011;59320;52.316;10.870;2023-07-20T02:02:39;1.23;;;0.82;;
70705;SDS011;59320;52.316;10.870;2023-07-20T02:05:09;1.05;;;0.95;;
70705;SDS011;59320;52.316;10.870;2023-07-20T02:07:37;1.40;;;1.10;;
70705;SDS011;59320;52.316;10.870;2023-07-20T02:10:05;1.17;;;0.90;;
70705;SDS011;59320;52.316;10.870;2023-07-20T02:12:34;1.77;;;1.10;;
70705;SDS011;59320;52.316;10.870;2023-07-20T02:15:01;1.50;;;0.80;;
70705;SDS011;59320;52.316;10.870;2023-07-20T02:17:29;3.33;;;0.70;;
70705;SDS011;59320;52.316;10.870;2023-07-20T02:19:56;0.80;;;0.80;;
70705;SDS011;59320;52.316;10.870;2023-07-20T02:22:23;1.15;;;1.00;;
70705;SDS011;59320;52.316;10.870;2023-07-20T02:24:52;0.80;;;0.80;;
70705;SDS011;59320;52.316;10.870;2023-07-20T02:27:19;1.27;;;0.90;;
70705;SDS011;59320;52.316;10.870;2023-07-20T02:29:46;1.25;;;0.80;;
70705;SDS011;59320;52.316;10.870;2023-07-20T02:32:13;0.98;;;0.88;;
70705;SDS011;59320;52.316;10.870;2023-07-20T02:34:40;0.88;;;0.88;;
70705;SDS011;59320;52.316;10.870;2023-07-20T02:37:07;1.48;;;0.98;;
70705;SDS011;59320;52.316;10.870;2023-07-20T02:39:34;1.20;;;1.10;;
70705;SDS011;59320;52.316;10.870;2023-07-20T02:42:02;2.10;;;0.90;;
70705;SDS011;59320;52.316;10.870;2023-07-20T02:44:30;1.20;;;1.10;;
70705;SDS011;59320;52.316;10.870;2023-07-20T02:46:57;1.02;;;0.93;;
70705;SDS011;59320;52.316;10.870;2023-07-20T02:49:24;1.58;;;1.00;;
70705;SDS011;59320;52.316;10.870;2023-07-20T02:51:51;1.83;;;0.95;;
70705;SDS011;59320;52.316;10.870;2023-07-20T02:54:18;2.15;;;0.90;;
70705;SDS011;59320;52.316;10.870;2023-07-20T02:56:45;2.00;;;1.33;;
70705;SDS011;59320;52.316;10.870;2023-07-20T02:59:13;2.17;;;1.00;;
70705;SDS011;59320;52.316;10.870;2023-07-20T03:01:40;1.02;;;0.93;;
70705;SDS011;59320;52.316;10.870;2023-07-20T03:04:08;1.60;;;1.00;;
70705;SDS011;59320;52.316;10.870;2023-07-20T03:06:36;1.23;;;1.10;;
70705;SDS011;59320;52.316;10.870;2023-07-20T03:09:03;1.00;;;0.90;;
70705;SDS011;59320;52.316;10.870;2023-07-20T03:11:32;1.08;;;0.98;;
70705;SDS011;59320;52.316;10.870;2023-07-20T03:13:59;1.50;;;1.10;;
70705;SDS011;59320;52.316;10.870;2023-07-20T03:16:28;1.67;;;1.05;;
70705;SDS011;59320;52.316;10.870;2023-07-20T03:18:59;1.45;;;1.00;;
70705;SDS011;59320;52.316;10.870;2023-07-20T03:21:26;1.20;;;0.95;;
70705;SDS011;59320;52.316;10.870;2023-07-20T03:23:54;0.93;;;0.80;;
70705;SDS011;59320;52.316;10.870;2023-07-20T03:26:22;0.80;;;0.80;;
70705;SDS011;59320;52.316;10.870;2023-07-20T03:28:49;1.08;;;0.95;;
70705;SDS011;59320;52.316;10.870;2023-07-20T03:31:16;1.23;;;1.00;;
70705;SDS011;59320;52.316;10.870;2023-07-20T03:33:45;2.00;;;0.90;;
70705;SDS011;59320;52.316;10.870;2023-07-20T03:36:12;1.15;;;0.85;;
70705;SDS011;59320;52.316;10.870;2023-07-20T03:38:39;1.67;;;0.80;;
70705;SDS011;59320;52.316;10.870;2023-07-20T03:41:06;1.10;;;0.95;;
70705;SDS011;59320;52.316;10.870;2023-07-20T03:43:34;1.17;;;0.90;;
70705;SDS011;59320;52.316;10.870;2023-07-20T03:46:01;1.00;;;0.90;;
70705;SDS011;59320;52.316;10.870;2023-07-20T03:48:31;1.40;;;0.90;;
70705;SDS011;59320;52.316;10.870;2023-07-20T03:51:01;0.77;;;0.70;;
70705;SDS011;59320;52.316;10.870;2023-07-20T03:53:28;1.33;;;1.10;;
70705;SDS011;59320;52.316;10.870;2023-07-20T03:55:55;2.55;;;1.10;;
70705;SDS011;59320;52.316;10.870;2023-07-20T03:58:22;2.80;;;1.20;;
70705;SDS011;59320;52.316;10.870;2023-07-20T04:00:50;1.20;;;1.00;;
70705;SDS011;59320;52.316;10.870;2023-07-20T04:03:18;1.00;;;0.95;;
70705;SDS011;59320;52.316;10.870;2023-07-20T04:05:46;1.10;;;1.00;;
70705;SDS011;59320;52.316;10.870;2023-07-20T04:08:14;1.58;;;0.90;;
70705;SDS011;59320;52.316;10.870;2023-07-20T04:10:43;0.80;;;0.80;;
70705;SDS011;59320;52.316;10.870;2023-07-20T04:13:11;2.47;;;0.90;;
70705;SDS011;59320;52.316;10.870;2023-07-20T04:15:38;1.05;;;0.80;;
70705;SDS011;59320;52.316;10.870;2023-07-20T04:18:05;2.15;;;1.08;;
70705;SDS011;59320;52.316;10.870;2023-07-20T04:20:32;2.40;;;1.55;;
70705;SDS011;59320;52.316;10.870;2023-07-20T04:22:59;1.80;;;1.00;;
70705;SDS011;59320;52.316;10.870;2023-07-20T04:25:27;1.30;;;1.20;;
70705;SDS011;59320;52.316;10.870;2023-07-20T04:27:54;1.50;;;1.40;;
70705;SDS011;59320;52.316;10.870;2023-07-20T04:30:21;1.25;;;1.10;;
70705;SDS011;59320;52.316;10.870;2023-07-20T04:32:48;1.33;;;1.20;;
70705;SDS011;59320;52.316;10.870;2023-07-20T04:35:17;1.55;;;1.45;;
70705;SDS011;59320;52.316;10.870;2023-07-20T04:38:06;2.05;;;1.27;;
70705;SDS011;59320;52.316;10.870;2023-07-20T04:40:34;1.10;;;1.00;;
70705;SDS011;59320;52.316;10.870;2023-07-20T04:43:01;1.25;;;1.10;;
70705;SDS011;59320;52.316;10.870;2023-07-20T04:45:29;1.00;;;0.82;;
70705;SDS011;59320;52.316;10.870;2023-07-20T04:47:56;0.73;;;0.70;;
70705;SDS011;59320;52.316;10.870;2023-07-20T04:50:23;1.02;;;0.77;;
70705;SDS011;59320;52.316;10.870;2023-07-20T04:52:51;1.95;;;0.80;;
70705;SDS011;59320;52.316;10.870;2023-07-20T04:55:20;1.10;;;0.90;;
70705;SDS011;59320;52.316;10.870;2023-07-20T04:57:48;1.05;;;0.95;;
70705;SDS011;59320;52.316;10.870;2023-07-20T05:00:16;0.65;;;0.65;;
70705;SDS011;59320;52.316;10.870;2023-07-20T05:02:44;1.33;;;0.73;;
70705;SDS011;59320;52.316;10.870;2023-07-20T05:05:12;1.10;;;0.73;;
70705;SDS011;59320;52.316;10.870;2023-07-20T05:07:39;0.98;;;0.80;;
70705;SDS011;59320;52.316;10.870;2023-07-20T05:10:07;0.73;;;0.73;;
70705;SDS011;59320;52.316;10.870;2023-07-20T05:12:34;0.73;;;0.70;;
70705;SDS011;59320;52.316;10.870;2023-07-20T05:15:03;0.80;;;0.75;;
70705;SDS011;59320;52.316;10.870;2023-07-20T05:17:31;1.30;;;0.80;;
70705;SDS011;59320;52.316;10.870;2023-07-20T05:19:58;0.95;;;0.75;;
70705;SDS011;59320;52.316;10.870;2023-07-20T05:22:25;2.25;;;1.00;;
70705;SDS011;59320;52.316;10.870;2023-07-20T05:24:52;0.82;;;0.70;;
70705;SDS011;59320;52.316;10.870;2023-07-20T05:27:19;0.80;;;0.80;;
70705;SDS011;59320;52.316;10.870;2023-07-20T05:29:46;1.45;;;0.85;;
70705;SDS011;59320;52.316;10.870;2023-07-20T05:32:15;1.75;;;0.90;;
70705;SDS011;59320;52.316;10.870;2023-07-20T05:34:42;0.93;;;0.82;;
70705;SDS011;59320;52.316;10.870;2023-07-20T05:37:09;0.75;;;0.60;;
70705;SDS011;59320;52.316;10.870;2023-07-20T05:39:36;0.85;;;0.85;;
70705;SDS011;59320;52.316;10.870;2023-07-20T05:42:03;2.35;;;0.90;;
70705;SDS011;59320;52.316;10.870;2023-07-20T05:44:30;0.90;;;0.90;;
70705;SDS011;59320;52.316;10.870;2023-07-20T05:46:57;0.98;;;0.80;;
70705;SDS011;59320;52.316;10.870;2023-07-20T05:49:26;1.48;;;0.80;;
70705;SDS011;59320;52.316;10.870;2023-07-20T05:51:54;1.00;;;0.70;;
70705;SDS011;59320;52.316;10.870;2023-07-20T05:54:22;0.90;;;0.70;;
70705;SDS011;59320;52.316;10.870;2023-07-20T05:56:51;1.40;;;0.82;;
70705;SDS011;59320;52.316;10.870;2023-07-20T05:59:18;1.35;;;0.88;;
70705;SDS011;59320;52.316;10.870;2023-07-20T06:01:45;1.40;;;0.68;;
70705;SDS011;59320;52.316;10.870;2023-07-20T06:04:13;0.70;;;0.70;;
70705;SDS011;59320;52.316;10.870;2023-07-20T06:06:42;0.85;;;0.80;;
70705;SDS011;59320;52.316;10.870;2023-07-20T06:09:09;3.10;;;0.80;;
70705;SDS011;59320;52.316;10.870;2023-07-20T06:11:37;1.65;;;1.00;;
70705;SDS011;59320;52.316;10.870;2023-07-20T06:14:04;1.10;;;1.00;;
70705;SDS011;59320;52.316;10.870;2023-07-20T06:16:31;1.58;;;1.00;;
70705;SDS011;59320;52.316;10.870;2023-07-20T06:18:59;1.73;;;1.10;;
70705;SDS011;59320;52.316;10.870;2023-07-20T06:21:26;1.80;;;1.10;;
70705;SDS011;59320;52.316;10.870;2023-07-20T06:23:54;1.73;;;1.20;;
70705;SDS011;59320;52.316;10.870;2023-07-20T06:26:21;3.80;;;1.30;;
70705;SDS011;59320;52.316;10.870;2023-07-20T06:28:48;2.10;;;1.35;;
70705;SDS011;59320;52.316;10.870;2023-07-20T06:31:16;3.03;;;1.65;;
70705;SDS011;59320;52.316;10.870;2023-07-20T06:33:43;5.10;;;1.52;;
70705;SDS011;59320;52.316;10.870;2023-07-20T06:36:10;2.38;;;1.58;;
70705;SDS011;59320;52.316;10.870;2023-07-20T06:38:37;1.67;;;1.20;;
70705;SDS011;59320;52.316;10.870;2023-07-20T06:41:05;2.10;;;1.10;;
70705;SDS011;59320;52.316;10.870;2023-07-20T06:43:32;2.25;;;1.33;;
70705;SDS011;59320;52.316;10.870;2023-07-20T06:46:00;3.65;;;1.63;;
70705;SDS011;59320;52.316;10.870;2023-07-20T06:48:27;2.40;;;1.20;;
70705;SDS011;59320;52.316;10.870;2023-07-20T06:50:54;2.55;;;1.60;;
70705;SDS011;59320;52.316;10.870;2023-07-20T06:53:22;1.00;;;0.95;;
70705;SDS011;59320;52.316;10.870;2023-07-20T06:55:49;2.70;;;1.70;;
70705;SDS011;59320;52.316;10.870;2023-07-20T06:58:17;1.63;;;1.52;;
70705;SDS011;59320;52.316;10.870;2023-07-20T07:00:46;2.50;;;1.55;;
70705;SDS011;59320;52.316;10.870;2023-07-20T07:03:13;2.97;;;1.50;;
70705;SDS011;59320;52.316;10.870;2023-07-20T07:05:40;2.47;;;2.00;;
70705;SDS011;59320;52.316;10.870;2023-07-20T07:08:07;1.63;;;1.52;;
70705;SDS011;59320;52.316;10.870;2023-07-20T07:10:35;1.75;;;1.60;;
70705;SDS011;59320;52.316;10.870;2023-07-20T07:13:02;1.80;;;1.70;;
70705;SDS011;59320;52.316;10.870;2023-07-20T07:15:31;2.75;;;2.15;;
70705;SDS011;59320;52.316;10.870;2023-07-20T07:17:58;3.25;;;2.35;;
70705;SDS011;59320;52.316;10.870;2023-07-20T07:20:25;4.97;;;2.90;;
70705;SDS011;59320;52.316;10.870;2023-07-20T07:22:53;3.05;;;2.72;;
70705;SDS011;59320;52.316;10.870;2023-07-20T07:25:21;1.88;;;1.67;;
70705;SDS011;59320;52.316;10.870;2023-07-20T07:27:48;1.60;;;1.50;;
70705;SDS011;59320;52.316;10.870;2023-07-20T07:30:15;2.78;;;1.02;;
70705;SDS011;59320;52.316;10.870;2023-07-20T07:32:43;0.85;;;0.85;;
70705;SDS011;59320;52.316;10.870;2023-07-20T07:35:10;0.80;;;0.80;;
70705;SDS011;59320;52.316;10.870;2023-07-20T07:37:38;1.42;;;0.77;;
70705;SDS011;59320;52.316;10.870;2023-07-20T07:40:06;1.75;;;0.60;;
70705;SDS011;59320;52.316;10.870;2023-07-20T07:42:34;2.60;;;1.05;;
70705;SDS011;59320;52.316;10.870;2023-07-20T07:45:01;1.23;;;0.60;;
70705;SDS011;59320;52.316;10.870;2023-07-20T07:47:29;1.50;;;0.90;;
70705;SDS011;59320;52.316;10.870;2023-07-20T07:49:57;1.45;;;0.60;;
70705;SDS011;59320;52.316;10.870;2023-07-20T07:52:25;1.15;;;0.60;;
70705;SDS011;59320;52.316;10.870;2023-07-20T07:54:52;0.60;;;0.47;;
70705;SDS011;59320;52.316;10.870;2023-07-20T07:57:19;0.73;;;0.50;;
70705;SDS011;59320;52.316;10.870;2023-07-20T07:59:46;0.43;;;0.32;;
70705;SDS011;59320;52.316;10.870;2023-07-20T08:02:13;0.28;;;0.28;;
70705;SDS011;59320;52.316;10.870;2023-07-20T08:04:40;1.70;;;0.47;;
70705;SDS011;59320;52.316;10.870;2023-07-20T08:07:08;1.17;;;0.40;;
70705;SDS011;59320;52.316;10.870;2023-07-20T08:09:35;0.75;;;0.32;;
70705;SDS011;59320;52.316;10.870;2023-07-20T08:12:03;0.20;;;0.20;;
70705;SDS011;59320;52.316;10.870;2023-07-20T08:14:31;0.85;;;0.40;;
70705;SDS011;59320;52.316;10.870;2023-07-20T08:16:58;0.50;;;0.40;;
70705;SDS011;59320;52.316;10.870;2023-07-20T08:19:25;0.30;;;0.30;;
70705;SDS011;59320;52.316;10.870;2023-07-20T08:21:52;0.63;;;0.30;;
70705;SDS011;59320;52.316;10.870;2023-07-20T08:24:20;0.35;;;0.30;;
70705;SDS011;59320;52.316;10.870;2023-07-20T08:26:47;0.50;;;0.30;;
70705;SDS011;59320;52.316;10.870;2023-07-20T08:29:14;0.80;;;0.20;;
70705;SDS011;59320;52.316;10.870;2023-07-20T08:31:41;0.70;;;0.30;;
70705;SDS011;59320;52.316;10.870;2023-07-20T08:34:08;0.20;;;0.20;;
70705;SDS011;59320;52.316;10.870;2023-07-20T08:36:36;0.98;;;0.40;;
70705;SDS011;59320;52.316;10.870;2023-07-20T08:39:03;0.40;;;0.30;;
70705;SDS011;59320;52.316;10.870;2023-07-20T08:41:31;1.45;;;0.35;;
70705;SDS011;59320;52.316;10.870;2023-07-20T08:43:59;0.85;;;0.40;;
70705;SDS011;59320;52.316;10.870;2023-07-20T08:46:27;0.88;;;0.43;;
70705;SDS011;59320;52.316;10.870;2023-07-20T08:48:55;0.57;;;0.35;;
70705;SDS011;59320;52.316;10.870;2023-07-20T08:51:24;0.50;;;0.40;;
70705;SDS011;59320;52.316;10.870;2023-07-20T08:53:52;1.65;;;0.40;;
70705;SDS011;59320;52.316;10.870;2023-07-20T08:56:19;0.22;;;0.22;;
70705;SDS011;59320;52.316;10.870;2023-07-20T08:58:48;0.75;;;0.30;;
70705;SDS011;59320;52.316;10.870;2023-07-20T09:01:16;0.95;;;0.30;;
70705;SDS011;59320;52.316;10.870;2023-07-20T09:03:44;0.43;;;0.38;;
70705;SDS011;59320;52.316;10.870;2023-07-20T09:06:12;0.25;;;0.20;;
70705;SDS011;59320;52.316;10.870;2023-07-20T09:08:39;0.80;;;0.20;;
70705;SDS011;59320;52.316;10.870;2023-07-20T09:11:07;0.57;;;0.40;;
70705;SDS011;59320;52.316;10.870;2023-07-20T09:13:36;0.40;;;0.30;;
70705;SDS011;59320;52.316;10.870;2023-07-20T09:16:05;0.60;;;0.30;;
70705;SDS011;59320;52.316;10.870;2023-07-20T09:18:33;1.02;;;0.60;;
70705;SDS011;59320;52.316;10.870;2023-07-20T09:21:01;0.73;;;0.38;;
70705;SDS011;59320;52.316;10.870;2023-07-20T09:23:29;0.50;;;0.43;;
70705;SDS011;59320;52.316;10.870;2023-07-20T09:25:58;1.05;;;0.40;;
70705;SDS011;59320;52.316;10.870;2023-07-20T09:28:25;0.40;;;0.40;;
70705;SDS011;59320;52.316;10.870;2023-07-20T09:30:53;0.65;;;0.50;;
70705;SDS011;59320;52.316;10.870;2023-07-20T09:33:23;1.58;;;0.35;;
70705;SDS011;59320;52.316;10.870;2023-07-20T09:35:51;0.30;;;0.20;;
70705;SDS011;59320;52.316;10.870;2023-07-20T09:38:18;1.00;;;0.43;;
70705;SDS011;59320;52.316;10.870;2023-07-20T09:40:45;0.45;;;0.30;;
70705;SDS011;59320;52.316;10.870;2023-07-20T09:43:12;0.45;;;0.30;;
70705;SDS011;59320;52.316;10.870;2023-07-20T09:45:42;0.65;;;0.50;;
70705;SDS011;59320;52.316;10.870;2023-07-20T09:48:10;1.83;;;0.50;;
70705;SDS011;59320;52.316;10.870;2023-07-20T09:50:42;1.02;;;0.50;;
70705;SDS011;59320;52.316;10.870;2023-07-20T09:53:16;1.08;;;0.47;;
70705;SDS011;59320;52.316;10.870;2023-07-20T09:55:44;1.88;;;0.40;;
70705;SDS011;59320;52.316;10.870;2023-07-20T09:58:12;0.80;;;0.50;;
70705;SDS011;59320;52.316;10.870;2023-07-20T10:00:40;1.73;;;0.50;;
70705;SDS011;59320;52.316;10.870;2023-07-20T10:03:10;1.85;;;0.47;;
70705;SDS011;59320;52.316;10.870;2023-07-20T10:05:40;1.05;;;0.50;;
70705;SDS011;59320;52.316;10.870;2023-07-20T10:08:14;1.50;;;0.65;;
70705;SDS011;59320;52.316;10.870;2023-07-20T10:10:44;0.73;;;0.32;;
70705;SDS011;59320;52.316;10.870;2023-07-20T10:13:17;0.70;;;0.55;;
70705;SDS011;59320;52.316;10.870;2023-07-20T10:15:46;0.60;;;0.40;;
70705;SDS011;59320;52.316;10.870;2023-07-20T10:18:17;1.75;;;0.52;;
70705;SDS011;59320;52.316;10.870;2023-07-20T10:20:59;0.63;;;0.32;;
70705;SDS011;59320;52.316;10.870;2023-07-20T10:23:27;0.60;;;0.30;;
70705;SDS011;59320;52.316;10.870;2023-07-20T10:25:55;0.38;;;0.38;;
70705;SDS011;59320;52.316;10.870;2023-07-20T10:28:24;0.82;;;0.47;;
70705;SDS011;59320;52.316;10.870;2023-07-20T10:30:52;3.22;;;0.30;;
70705;SDS011;59320;52.316;10.870;2023-07-20T10:33:19;1.73;;;0.30;;
70705;SDS011;59320;52.316;10.870;2023-07-20T10:35:51;1.45;;;0.43;;
70705;SDS011;59320;52.316;10.870;2023-07-20T10:38:20;1.10;;;0.43;;
70705;SDS011;59320;52.316;10.870;2023-07-20T10:41:15;0.45;;;0.25;;
70705;SDS011;59320;52.316;10.870;2023-07-20T10:43:43;0.20;;;0.20;;
70705;SDS011;59320;52.316;10.870;2023-07-20T10:46:11;0.77;;;0.25;;
70705;SDS011;59320;52.316;10.870;2023-07-20T10:51:27;0.32;;;0.30;;
70705;SDS011;59320;52.316;10.870;2023-07-20T10:53:56;0.77;;;0.40;;
70705;SDS011;59320;52.316;10.870;2023-07-20T10:56:26;1.15;;;0.50;;
70705;SDS011;59320;52.316;10.870;2023-07-20T10:58:58;1.42;;;0.63;;
70705;SDS011;59320;52.316;10.870;2023-07-20T11:01:27;0.40;;;0.40;;
70705;SDS011;59320;52.316;10.870;2023-07-20T11:03:57;0.82;;;0.43;;
70705;SDS011;59320;52.316;10.870;2023-07-20T11:06:31;0.40;;;0.40;;
70705;SDS011;59320;52.316;10.870;2023-07-20T11:09:09;1.13;;;0.47;;
70705;SDS011;59320;52.316;10.870;2023-07-20T11:11:40;0.85;;;0.35;;
70705;SDS011;59320;52.316;10.870;2023-07-20T11:14:08;1.02;;;0.40;;
70705;SDS011;59320;52.316;10.870;2023-07-20T11:16:40;0.30;;;0.30;;
70705;SDS011;59320;52.316;10.870;2023-07-20T11:19:15;1.63;;;0.50;;
70705;SDS011;59320;52.316;10.870;2023-07-20T11:21:47;0.60;;;0.30;;
70705;SDS011;59320;52.316;10.870;2023-07-20T11:24:18;0.30;;;0.30;;
70705;SDS011;59320;52.316;10.870;2023-07-20T11:26:46;0.45;;;0.38;;
70705;SDS011;59320;52.316;10.870;2023-07-20T11:29:15;0.80;;;0.30;;
70705;SDS011;59320;52.316;10.870;2023-07-20T11:31:44;0.32;;;0.32;;
70705;SDS011;59320;52.316;10.870;2023-07-20T11:34:12;0.75;;;0.35;;
70705;SDS011;59320;52.316;10.870;2023-07-20T11:36:40;1.08;;;0.52;;
70705;SDS011;59320;52.316;10.870;2023-07-20T11:39:08;0.50;;;0.50;;
70705;SDS011;59320;52.316;10.870;2023-07-20T11:41:38;1.95;;;0.40;;
70705;SDS011;59320;52.316;10.870;2023-07-20T11:44:10;0.80;;;0.50;;
70705;SDS011;59320;52.316;10.870;2023-07-20T11:46:38;0.70;;;0.40;;
70705;SDS011;59320;52.316;10.870;2023-07-20T11:49:06;0.55;;;0.40;;
70705;SDS011;59320;52.316;10.870;2023-07-20T11:51:34;0.98;;;0.40;;
70705;SDS011;59320;52.316;10.870;2023-07-20T11:54:01;1.02;;;0.50;;
70705;SDS011;59320;52.316;10.870;2023-07-20T11:56:28;2.72;;;0.40;;
70705;SDS011;59320;52.316;10.870;2023-07-20T11:58:57;1.42;;;0.50;;
70705;SDS011;59320;52.316;10.870;2023-07-20T12:01:26;0.70;;;0.45;;
70705;SDS011;59320;52.316;10.870;2023-07-20T12:03:57;0.85;;;0.45;;
70705;SDS011;59320;52.316;10.870;2023-07-20T12:06:24;0.82;;;0.43;;
70705;SDS011;59320;52.316;10.870;2023-07-20T12:08:53;1.30;;;0.40;;
70705;SDS011;59320;52.316;10.870;2023-07-20T12:11:32;0.32;;;0.32;;
70705;SDS011;59320;52.316;10.870;2023-07-20T12:14:01;1.23;;;0.40;;
70705;SDS011;59320;52.316;10.870;2023-07-20T12:16:29;0.80;;;0.43;;
70705;SDS011;59320;52.316;10.870;2023-07-20T12:19:00;0.20;;;0.20;;
70705;SDS011;59320;52.316;10.870;2023-07-20T12:21:28;0.90;;;0.50;;
70705;SDS011;59320;52.316;10.870;2023-07-20T12:23:55;0.73;;;0.40;;
70705;SDS011;59320;52.316;10.870;2023-07-20T12:26:24;0.30;;;0.30;;
70705;SDS011;59320;52.316;10.870;2023-07-20T12:28:51;1.80;;;0.50;;
70705;SDS011;59320;52.316;10.870;2023-07-20T12:31:20;1.60;;;0.40;;
70705;SDS011;59320;52.316;10.870;2023-07-20T12:33:49;0.30;;;0.30;;
70705;SDS011;59320;52.316;10.870;2023-07-20T12:36:16;0.82;;;0.38;;
70705;SDS011;59320;52.316;10.870;2023-07-20T12:38:44;1.15;;;0.47;;
70705;SDS011;59320;52.316;10.870;2023-07-20T12:41:11;1.75;;;0.50;;
70705;SDS011;59320;52.316;10.870;2023-07-20T12:43:39;0.88;;;0.30;;
70705;SDS011;59320;52.316;10.870;2023-07-20T12:46:06;1.38;;;0.40;;
70705;SDS011;59320;52.316;10.870;2023-07-20T12:48:35;0.63;;;0.32;;
70705;SDS011;59320;52.316;10.870;2023-07-20T12:51:05;1.08;;;0.35;;
70705;SDS011;59320;52.316;10.870;2023-07-20T12:53:33;0.70;;;0.30;;
70705;SDS011;59320;52.316;10.870;2023-07-20T12:56:00;0.65;;;0.50;;
70705;SDS011;59320;52.316;10.870;2023-07-20T12:58:27;2.00;;;0.47;;
70705;SDS011;59320;52.316;10.870;2023-07-20T13:00:55;1.80;;;0.50;;
70705;SDS011;59320;52.316;10.870;2023-07-20T13:03:22;0.40;;;0.40;;
70705;SDS011;59320;52.316;10.870;2023-07-20T13:05:50;1.30;;;0.68;;
70705;SDS011;59320;52.316;10.870;2023-07-20T13:08:17;3.45;;;0.50;;
70705;SDS011;59320;52.316;10.870;2023-07-20T13:10:45;3.72;;;0.40;;
70705;SDS011;59320;52.316;10.870;2023-07-20T13:13:12;2.65;;;0.43;;
70705;SDS011;59320;52.316;10.870;2023-07-20T13:15:42;0.73;;;0.60;;
70705;SDS011;59320;52.316;10.870;2023-07-20T13:18:11;0.65;;;0.35;;
70705;SDS011;59320;52.316;10.870;2023-07-20T13:20:38;4.60;;;0.65;;
70705;SDS011;59320;52.316;10.870;2023-07-20T13:23:07;0.52;;;0.30;;
70705;SDS011;59320;52.316;10.870;2023-07-20T13:25:34;3.55;;;0.40;;
70705;SDS011;59320;52.316;10.870;2023-07-20T13:28:01;1.05;;;0.30;;
70705;SDS011;59320;52.316;10.870;2023-07-20T13:30:28;1.00;;;0.50;;
70705;SDS011;59320;52.316;10.870;2023-07-20T13:32:55;2.47;;;0.50;;
70705;SDS011;59320;52.316;10.870;2023-07-20T13:35:22;1.63;;;0.40;;
70705;SDS011;59320;52.316;10.870;2023-07-20T13:37:49;0.43;;;0.40;;
70705;SDS011;59320;52.316;10.870;2023-07-20T13:40:18;0.80;;;0.30;;
70705;SDS011;59320;52.316;10.870;2023-07-20T13:42:45;0.77;;;0.40;;
70705;SDS011;59320;52.316;10.870;2023-07-20T13:45:12;0.63;;;0.40;;
70705;SDS011;59320;52.316;10.870;2023-07-20T13:47:39;0.98;;;0.50;;
70705;SDS011;59320;52.316;10.870;2023-07-20T13:50:06;1.08;;;0.60;;
70705;SDS011;59320;52.316;10.870;2023-07-20T13:52:34;1.85;;;1.05;;
70705;SDS011;59320;52.316;10.870;2023-07-20T13:55:02;1.00;;;0.47;;
70705;SDS011;59320;52.316;10.870;2023-07-20T13:57:31;1.00;;;0.50;;
70705;SDS011;59320;52.316;10.870;2023-07-20T13:59:58;1.10;;;0.47;;
70705;SDS011;59320;52.316;10.870;2023-07-20T14:02:37;1.42;;;0.50;;
70705;SDS011;59320;52.316;10.870;2023-07-20T14:05:04;1.25;;;0.70;;
70705;SDS011;59320;52.316;10.870;2023-07-20T14:07:32;1.00;;;0.60;;
70705;SDS011;59320;52.316;10.870;2023-07-20T14:09:59;1.65;;;0.60;;
70705;SDS011;59320;52.316;10.870;2023-07-20T14:12:26;0.80;;;0.55;;
70705;SDS011;59320;52.316;10.870;2023-07-20T14:14:54;0.80;;;0.43;;
70705;SDS011;59320;52.316;10.870;2023-07-20T14:17:21;2.78;;;0.60;;
70705;SDS011;59320;52.316;10.870;2023-07-20T14:19:49;1.05;;;0.50;;
70705;SDS011;59320;52.316;10.870;2023-07-20T14:22:16;0.52;;;0.40;;
70705;SDS011;59320;52.316;10.870;2023-07-20T14:24:43;1.83;;;0.50;;
70705;SDS011;59320;52.316;10.870;2023-07-20T14:27:10;2.28;;;0.50;;
70705;SDS011;59320;52.316;10.870;2023-07-20T14:29:37;0.55;;;0.50;;
70705;SDS011;59320;52.316;10.870;2023-07-20T14:32:06;1.13;;;0.40;;
70705;SDS011;59320;52.316;10.870;2023-07-20T14:34:34;0.95;;;0.50;;
70705;SDS011;59320;52.316;10.870;2023-07-20T14:37:01;1.00;;;0.50;;
70705;SDS011;59320;52.316;10.870;2023-07-20T14:39:29;0.65;;;0.50;;
70705;SDS011;59320;52.316;10.870;2023-07-20T14:41:56;2.15;;;0.47;;
70705;SDS011;59320;52.316;10.870;2023-07-20T14:44:24;2.55;;;0.60;;
70705;SDS011;59320;52.316;10.870;2023-07-20T14:46:51;1.20;;;0.60;;